Time;durP1;ratioP1;P1;durP2;ratioP2;P2;SDS_P1;SDS_P2;PMS_P1;PMS_P2;Temp;Humidity;BMP_temperature;BMP_pressure;BME280_temperature;BME280_humidity;BME280_pressure;Samples;Min_cycle;Max_cycle;Signal;HPM_P1;HPM_P2
2023/12/03 00:02:14;;;;;;;2.70;1.42;;;;;;;-5.25;80.65;100639.00;5046287;28;20021;-67
2023/12/03 00:04:42;;;;;;;3.65;2.30;;;;;;;-5.26;80.82;100636.38;5046164;28;20048;-65
2023/12/03 00:07:07;;;;;;;1.27;0.82;;;;;;;-5.26;80.94;100644.88;5046321;28;20029;-67
2023/12/03 00:09:33;;;;;;;1.17;1.17;;;;;;;-5.33;80.98;100640.19;5046008;28;20030;-68
2023/12/03 00:11:59;;;;;;;3.53;2.40;;;;;;;-5.33;81.09;100642.72;5046028;28;20082;-67
2023/12/03 00:14:24;;;;;;;1.83;1.73;;;;;;;-5.24;81.06;100640.75;5045858;28;20041;-68
2023/12/03 00:16:49;;;;;;;1.70;1.60;;;;;;;-5.25;80.93;100641.53;5045890;28;20025;-68
2023/12/03 00:19:15;;;;;;;1.83;1.73;;;;;;;-5.27;81.05;100639.72;5027947;28;20528;-68
2023/12/03 00:21:40;;;;;;;0.90;0.90;;;;;;;-5.26;80.95;100644.88;5045458;28;20116;-67
2023/12/03 00:24:06;;;;;;;2.65;2.45;;;;;;;-5.29;81.13;100647.22;5044445;28;20018;-68
2023/12/03 00:26:31;;;;;;;1.52;1.50;;;;;;;-5.29;81.09;100649.75;5045717;28;20029;-68
2023/12/03 00:28:56;;;;;;;1.30;1.30;;;;;;;-5.28;81.05;100643.88;5045693;28;20025;-68
2023/12/03 00:31:21;;;;;;;0.60;0.60;;;;;;;-5.28;81.05;100638.81;5045666;28;20025;-68
2023/12/03 00:33:47;;;;;;;1.00;1.00;;;;;;;-5.33;81.08;100630.06;5045666;28;20048;-68
2023/12/03 00:36:13;;;;;;;0.75;0.75;;;;;;;-5.22;81.17;100646.78;5045635;28;20040;-68
2023/12/03 00:38:38;;;;;;;3.22;2.58;;;;;;;-5.15;81.26;100658.16;5045354;28;20105;-67
2023/12/03 00:41:03;;;;;;;0.90;0.90;;;;;;;-5.07;81.24;100655.19;5045422;28;20022;-67
2023/12/03 00:43:29;;;;;;;0.98;0.98;;;;;;;-5.10;81.10;100640.69;5045226;28;20084;-68
2023/12/03 00:45:54;;;;;;;1.40;1.30;;;;;;;-5.07;81.01;100656.06;5045436;28;20497;-68
2023/12/03 00:48:20;;;;;;;4.25;3.95;;;;;;;-5.08;81.02;100659.41;5045623;28;20021;-68
2023/12/03 00:50:45;;;;;;;1.45;1.38;;;;;;;-5.13;81.00;100661.63;5045142;28;20025;-67
2023/12/03 00:53:11;;;;;;;3.42;1.52;;;;;;;-5.08;80.94;100667.00;5045315;28;20029;-68
2023/12/03 00:55:36;;;;;;;2.15;2.05;;;;;;;-5.10;81.27;100660.97;5045015;28;20029;-68
2023/12/03 00:58:01;;;;;;;0.95;0.95;;;;;;;-5.07;81.04;100665.31;5044951;28;20073;-67
2023/12/03 01:00:27;;;;;;;2.30;1.58;;;;;;;-5.04;80.99;100662.97;5045034;28;20036;-67
2023/12/03 01:02:52;;;;;;;0.85;0.85;;;;;;;-5.06;80.93;100667.94;5045168;28;20034;-67
2023/12/03 01:05:17;;;;;;;0.85;0.85;;;;;;;-5.10;81.03;100660.97;5044812;28;20041;-67
2023/12/03 01:07:43;;;;;;;6.10;3.75;;;;;;;-5.10;80.94;100668.56;5043839;28;20021;-68
2023/12/03 01:10:08;;;;;;;3.20;3.00;;;;;;;-5.11;81.07;100659.19;5045162;28;20104;-67
2023/12/03 01:12:34;;;;;;;1.17;1.17;;;;;;;-5.03;81.08;100667.28;5044985;28;20064;-67
2023/12/03 01:14:59;;;;;;;1.13;1.02;;;;;;;-5.07;80.98;100671.28;5044519;28;20047;-67
2023/12/03 01:17:24;;;;;;;1.13;1.13;;;;;;;-4.97;80.84;100668.47;5044859;28;20075;-67
2023/12/03 01:19:50;;;;;;;0.70;0.70;;;;;;;-4.93;80.97;100668.66;5044685;28;20485;-67
2023/12/03 01:22:15;;;;;;;2.70;2.00;;;;;;;-4.93;80.77;100664.47;5045022;28;20486;-68
2023/12/03 01:24:40;;;;;;;1.13;1.10;;;;;;;-4.92;80.69;100673.81;5044917;28;20112;-66
2023/12/03 01:27:06;;;;;;;4.60;2.35;;;;;;;-4.94;80.74;100672.88;5044907;28;20036;-67
2023/12/03 01:29:32;;;;;;;1.30;1.30;;;;;;;-4.91;80.85;100678.13;5044707;28;20045;-67
2023/12/03 01:31:57;;;;;;;0.70;0.70;;;;;;;-4.90;80.69;100673.91;5044973;28;20041;-67
2023/12/03 01:34:23;;;;;;;0.98;0.98;;;;;;;-4.95;80.68;100682.91;5044641;28;20195;-67
2023/12/03 01:36:49;;;;;;;0.80;0.80;;;;;;;-4.93;80.61;100689.81;5044665;28;20029;-67
2023/12/03 01:39:14;;;;;;;1.45;1.35;;;;;;;-4.93;80.68;100691.44;5027147;28;20021;-67
2023/12/03 01:41:40;;;;;;;1.75;1.40;;;;;;;-4.96;80.82;100684.56;5044544;28;20466;-67
2023/12/03 01:44:06;;;;;;;1.00;1.00;;;;;;;-4.97;80.77;100683.69;5044572;28;20087;-67
2023/12/03 01:46:32;;;;;;;2.55;2.25;;;;;;;-4.94;80.82;100693.13;5044625;28;20025;-67
2023/12/03 01:48:58;;;;;;;0.57;0.57;;;;;;;-4.97;80.68;100688.75;5044686;28;20505;-66
2023/12/03 01:51:23;;;;;;;1.52;1.42;;;;;;;-4.99;80.65;100686.91;5044728;28;20032;-67
2023/12/03 01:53:50;;;;;;;1.83;1.65;;;;;;;-4.96;80.90;100689.63;5044638;28;20072;-66
2023/12/03 01:56:15;;;;;;;1.00;1.00;;;;;;;-4.91;80.85;100695.84;5044256;28;20025;-67
2023/12/03 01:58:41;;;;;;;1.40;1.33;;;;;;;-4.87;81.04;100694.34;5044601;28;20022;-67
2023/12/03 02:01:07;;;;;;;1.45;1.20;;;;;;;-4.84;80.70;100689.50;5043198;28;20103;-67
2023/12/03 02:03:32;;;;;;;1.35;1.25;;;;;;;-4.79;80.81;100687.22;5044781;28;20106;-67
2023/12/03 02:06:09;;;;;;;0.70;0.70;;;;;;;-4.78;80.71;100701.63;5044316;28;20036;-67
2023/12/03 02:08:35;;;;;;;7.13;3.45;;;;;;;-4.77;80.75;100698.31;5045001;28;20025;-67
2023/12/03 02:11:04;;;;;;;0.68;0.68;;;;;;;-4.77;80.67;100685.63;5044379;28;20029;-66
2023/12/03 02:13:32;;;;;;;4.45;2.65;;;;;;;-4.77;80.66;100691.59;5044167;28;20100;-67
2023/12/03 02:15:57;;;;;;;1.50;1.40;;;;;;;-4.77;80.64;100689.06;5044196;28;20029;-67
2023/12/03 02:18:24;;;;;;;2.58;2.20;;;;;;;-4.74;81.02;100690.88;5044279;28;20021;-67
2023/12/03 02:20:49;;;;;;;0.80;0.80;;;;;;;-4.74;80.36;100696.84;5044296;28;20030;-67
2023/12/03 02:23:15;;;;;;;2.90;2.67;;;;;;;-4.80;80.58;100695.59;5044365;28;20032;-69
2023/12/03 02:25:43;;;;;;;2.22;2.13;;;;;;;-4.76;80.62;100688.25;5044295;28;20045;-67
2023/12/03 02:28:09;;;;;;;1.23;1.23;;;;;;;-4.76;80.68;100695.00;5047989;28;20026;-66
2023/12/03 02:30:34;;;;;;;1.48;1.15;;;;;;;-4.79;80.66;100698.22;5048040;28;20085;-67
2023/12/03 02:33:00;;;;;;;2.40;2.10;;;;;;;-4.83;80.53;100691.22;5047743;28;20025;-67
2023/12/03 02:35:25;;;;;;;0.90;0.90;;;;;;;-4.81;80.53;100704.00;5047742;28;20021;-66
2023/12/03 02:37:51;;;;;;;4.57;1.92;;;;;;;-4.81;80.52;100706.53;5047978;28;20026;-67
2023/12/03 02:40:16;;;;;;;6.43;2.45;;;;;;;-4.86;80.56;100706.25;5047745;28;20025;-67
2023/12/03 02:42:41;;;;;;;0.57;0.57;;;;;;;-4.89;80.57;100695.94;5047591;28;20470;-67
2023/12/03 02:45:08;;;;;;;1.70;1.60;;;;;;;-4.89;80.73;100701.00;5047661;28;20485;-67
2023/12/03 02:47:34;;;;;;;1.35;1.35;;;;;;;-4.91;80.84;100702.56;5047586;28;20051;-67
2023/12/03 02:50:00;;;;;;;4.78;4.40;;;;;;;-4.89;80.63;100713.66;5047226;28;20114;-67
2023/12/03 02:52:25;;;;;;;1.65;1.55;;;;;;;-4.87;80.74;100710.44;5047659;28;20029;-67
2023/12/03 02:54:51;;;;;;;5.15;2.35;;;;;;;-4.86;80.61;100708.78;5047512;28;20029;-67
2023/12/03 02:57:16;;;;;;;6.45;2.28;;;;;;;-4.89;80.54;100709.44;5046073;28;20079;-67
2023/12/03 02:59:41;;;;;;;2.13;2.03;;;;;;;-4.91;80.50;100707.63;5047437;28;20028;-67
2023/12/03 03:02:07;;;;;;;1.35;1.08;;;;;;;-4.92;80.70;100701.69;5047172;28;20470;-66
2023/12/03 03:04:32;;;;;;;1.95;1.60;;;;;;;-4.90;80.68;100712.78;5047349;28;20037;-67
2023/12/03 03:06:57;;;;;;;15.63;2.65;;;;;;;-4.92;80.51;100713.47;5047206;28;20375;-66
2023/12/03 03:09:23;;;;;;;1.08;1.08;;;;;;;-4.96;80.58;100714.94;5045975;28;20386;-67
2023/12/03 03:11:48;;;;;;;4.07;1.63;;;;;;;-4.99;80.66;100718.19;5047058;28;20032;-67
2023/12/03 03:14:13;;;;;;;0.88;0.88;;;;;;;-5.04;80.54;100714.50;5047120;28;20456;-67
2023/12/03 03:16:39;;;;;;;1.77;1.67;;;;;;;-5.08;80.18;100710.03;5047039;28;20025;-67
2023/12/03 03:19:05;;;;;;;4.93;3.80;;;;;;;-5.09;80.58;100708.28;5029250;28;20022;-67
2023/12/03 03:21:36;;;;;;;1.30;1.27;;;;;;;-5.10;80.60;100719.19;5029216;28;20030;-67
2023/12/03 03:24:02;;;;;;;1.17;1.17;;;;;;;-5.15;80.61;100716.38;5046952;28;20477;-67
2023/12/03 03:26:27;;;;;;;2.83;2.30;;;;;;;-5.13;80.55;100726.59;5046807;28;20033;-67
2023/12/03 03:28:53;;;;;;;0.95;0.95;;;;;;;-5.15;80.39;100729.03;5045504;28;20025;-67
2023/12/03 03:31:18;;;;;;;1.13;1.10;;;;;;;-5.19;80.49;100727.09;5046945;28;20093;-67
2023/12/03 03:33:43;;;;;;;0.73;0.73;;;;;;;-5.21;80.48;100723.63;5046867;28;20057;-66
2023/12/03 03:36:09;;;;;;;7.43;2.45;;;;;;;-5.17;80.73;100734.78;5046314;28;20026;-67
2023/12/03 03:38:34;;;;;;;6.65;1.35;;;;;;;-5.17;80.57;100729.72;5044876;28;20030;-67
2023/12/03 03:41:00;;;;;;;0.93;0.93;;;;;;;-5.16;80.53;100731.50;5045187;28;20056;-67
2023/12/03 03:43:25;;;;;;;6.93;2.10;;;;;;;-5.13;80.43;100741.81;5028831;28;20026;-66
2023/12/03 03:45:50;;;;;;;1.20;1.20;;;;;;;-5.15;80.54;100738.28;5046482;28;20029;-66
2023/12/03 03:48:15;;;;;;;1.92;1.83;;;;;;;-5.17;80.40;100738.19;5046537;28;20025;-66
2023/12/03 03:50:41;;;;;;;2.03;1.92;;;;;;;-5.20;80.49;100734.59;5028397;28;20048;-66
2023/12/03 03:53:06;;;;;;;2.15;1.90;;;;;;;-5.23;80.45;100735.28;5046487;28;20079;-67
2023/12/03 03:55:31;;;;;;;0.60;0.60;;;;;;;-5.26;80.40;100730.94;5044835;28;20056;-67
2023/12/03 03:57:57;;;;;;;2.63;2.53;;;;;;;-5.29;80.51;100733.28;5046085;28;20132;-66
2023/12/03 04:00:22;;;;;;;0.70;0.70;;;;;;;-5.26;80.37;100742.69;5046357;28;20505;-67
2023/12/03 04:02:48;;;;;;;13.15;3.15;;;;;;;-5.31;80.46;100742.41;5046169;28;20030;-66
2023/12/03 04:05:13;;;;;;;1.38;1.05;;;;;;;-5.34;80.32;100747.28;5046314;28;20029;-66
2023/12/03 04:07:38;;;;;;;1.08;1.08;;;;;;;-5.34;80.38;100749.81;5046263;28;20037;-66
2023/12/03 04:10:05;;;;;;;0.80;0.80;;;;;;;-5.37;80.56;100742.91;5044517;28;20022;-66
2023/12/03 04:12:30;;;;;;;0.60;0.60;;;;;;;-5.49;80.49;100727.84;5028233;28;20098;-67
2023/12/03 04:14:55;;;;;;;0.70;0.70;;;;;;;-5.36;80.18;100746.31;5044549;28;20025;-66
2023/12/03 04:17:21;;;;;;;0.93;0.93;;;;;;;-5.43;80.40;100751.78;5045846;28;20489;-66
2023/12/03 04:19:46;;;;;;;1.17;1.05;;;;;;;-5.45;80.23;100751.69;5045372;28;20033;-66
2023/12/03 04:22:11;;;;;;;1.45;1.35;;;;;;;-5.50;80.30;100737.88;5046004;28;20025;-66
2023/12/03 04:24:36;;;;;;;1.70;1.60;;;;;;;-5.49;80.04;100758.22;5045601;28;20056;-66
2023/12/03 04:27:03;;;;;;;1.75;1.65;;;;;;;-5.57;80.11;100750.94;5045577;28;20450;-67
2023/12/03 04:29:28;;;;;;;2.45;1.75;;;;;;;-5.58;80.28;100755.09;5045746;28;20485;-67
2023/12/03 04:31:53;;;;;;;1.90;1.48;;;;;;;-5.58;80.21;100759.28;5045660;28;20025;-67
2023/12/03 04:34:19;;;;;;;1.02;1.00;;;;;;;-5.62;80.31;100758.19;5045694;28;20109;-67
2023/12/03 04:36:44;;;;;;;1.23;1.20;;;;;;;-5.65;80.22;100763.97;5045455;28;20573;-67
2023/12/03 04:39:10;;;;;;;2.15;1.35;;;;;;;-5.70;80.35;100767.00;5045231;28;20055;-67
2023/12/03 04:41:36;;;;;;;1.00;1.00;;;;;;;-5.72;80.27;100767.75;5045376;28;20025;-67
2023/12/03 04:44:02;;;;;;;1.08;0.90;;;;;;;-5.76;80.24;100773.41;5045696;28;20028;-66
2023/12/03 04:46:28;;;;;;;5.68;1.23;;;;;;;-5.75;80.24;100771.75;5045398;28;20035;-68
2023/12/03 04:48:53;;;;;;;0.90;0.90;;;;;;;-5.83;80.51;100760.25;5044771;28;20049;-67
2023/12/03 04:51:18;;;;;;;1.65;1.55;;;;;;;-5.84;80.39;100764.44;5027188;28;20017;-67
2023/12/03 04:53:44;;;;;;;0.60;0.60;;;;;;;-5.85;80.43;100766.09;5045379;28;20451;-67
2023/12/03 04:56:09;;;;;;;1.48;1.48;;;;;;;-5.82;80.34;100770.47;5044968;28;20035;-67
2023/12/03 04:58:35;;;;;;;1.30;1.20;;;;;;;-5.88;80.21;100772.63;5045310;28;20478;-67
2023/12/03 05:01:00;;;;;;;0.98;0.98;;;;;;;-5.90;80.45;100776.69;5027281;28;20033;-67
2023/12/03 05:03:25;;;;;;;0.70;0.70;;;;;;;-5.92;80.43;100776.59;5045195;28;20057;-67
2023/12/03 05:05:52;;;;;;;1.98;1.88;;;;;;;-5.98;80.27;100772.03;5044700;28;20075;-68
2023/12/03 05:08:18;;;;;;;1.58;1.52;;;;;;;-5.97;80.40;100780.47;5045063;28;20021;-67
2023/12/03 05:10:43;;;;;;;6.80;3.25;;;;;;;-5.97;80.40;100791.47;5045255;28;20103;-66
2023/12/03 05:13:08;;;;;;;1.85;1.17;;;;;;;-6.01;80.46;100792.06;5045015;28;20032;-67
2023/12/03 05:15:34;;;;;;;1.10;1.10;;;;;;;-5.97;80.49;100790.59;5045161;28;20048;-67
2023/12/03 05:17:59;;;;;;;10.07;1.30;;;;;;;-6.06;80.38;100787.50;5043641;28;20030;-67
2023/12/03 05:20:25;;;;;;;0.82;0.82;;;;;;;-6.11;80.15;100772.03;5043323;28;20441;-66
2023/12/03 05:22:51;;;;;;;1.33;1.27;;;;;;;-6.07;80.10;100785.75;5045139;28;20093;-67
2023/12/03 05:25:18;;;;;;;6.13;1.17;;;;;;;-6.09;80.11;100783.13;5044809;28;20044;-68
2023/12/03 05:27:44;;;;;;;2.08;1.63;;;;;;;-6.11;80.18;100784.66;5044913;28;20034;-67
2023/12/03 05:30:10;;;;;;;1.17;1.17;;;;;;;-6.12;79.89;100787.97;5044926;28;20028;-67
2023/12/03 05:32:35;;;;;;;1.42;1.10;;;;;;;-6.15;80.04;100785.25;5044888;28;20032;-66
2023/12/03 05:35:01;;;;;;;1.33;1.23;;;;;;;-6.12;80.11;100793.88;5043137;28;20025;-67
2023/12/03 05:37:28;;;;;;;0.60;0.60;;;;;;;-6.18;80.16;100788.44;5044765;28;20080;-68
2023/12/03 05:39:54;;;;;;;2.85;1.58;;;;;;;-6.19;80.40;100784.16;5044794;28;20458;-67
2023/12/03 05:42:20;;;;;;;1.83;1.73;;;;;;;-6.23;80.33;100780.56;5043339;28;20032;-67
2023/12/03 05:44:46;;;;;;;0.70;0.70;;;;;;;-6.24;80.45;100783.88;5044880;28;20025;-67
2023/12/03 05:47:12;;;;;;;6.90;2.38;;;;;;;-6.25;80.43;100791.34;5026762;28;20022;-68
2023/12/03 05:49:40;;;;;;;2.15;2.05;;;;;;;-6.24;80.59;100788.03;5044685;28;20056;-68
2023/12/03 05:52:05;;;;;;;0.80;0.80;;;;;;;-6.28;80.53;100784.44;5044453;28;20028;-67
2023/12/03 05:54:30;;;;;;;2.38;2.17;;;;;;;-6.27;80.58;100795.41;5044586;28;20026;-67
2023/12/03 05:56:56;;;;;;;0.65;0.65;;;;;;;-6.30;80.72;100797.75;5044298;28;20216;-67
2023/12/03 05:59:22;;;;;;;0.60;0.60;;;;;;;-6.32;80.70;100794.22;5044677;28;20029;-68
2023/12/03 06:01:51;;;;;;;0.65;0.65;;;;;;;-6.36;80.72;100796.56;5047932;28;20116;-68
2023/12/03 06:04:17;;;;;;;0.70;0.70;;;;;;;-6.35;80.56;100798.31;5030663;28;20036;-67
2023/12/03 06:06:43;;;;;;;1.38;1.35;;;;;;;-6.37;80.66;100796.44;5030295;28;20052;-68
2023/12/03 06:09:09;;;;;;;0.80;0.80;;;;;;;-6.41;80.86;100789.44;5048395;28;20022;-68
2023/12/03 06:11:35;;;;;;;0.70;0.70;;;;;;;-6.37;80.43;100804.03;5030526;28;20469;-68
2023/12/03 06:14:01;;;;;;;28.95;3.20;;;;;;;-6.43;80.57;100799.47;5048224;28;20029;-68
2023/12/03 06:16:27;;;;;;;1.30;1.23;;;;;;;-6.47;80.76;100797.50;5048365;28;20471;-68
2023/12/03 06:18:52;;;;;;;1.25;1.15;;;;;;;-6.45;80.63;100807.72;5047968;28;20076;-68
2023/12/03 06:21:17;;;;;;;1.10;1.05;;;;;;;-6.49;80.74;100806.63;5048057;28;20050;-68
2023/12/03 06:23:43;;;;;;;5.38;1.30;;;;;;;-6.50;80.79;100815.84;5046870;28;20025;-67
2023/12/03 06:26:08;;;;;;;2.38;2.28;;;;;;;-6.63;80.63;100806.56;5047826;28;20053;-66
2023/12/03 06:28:34;;;;;;;1.80;1.70;;;;;;;-6.53;80.79;100819.84;5048364;28;20048;-66
2023/12/03 06:31:00;;;;;;;2.60;2.40;;;;;;;-6.55;80.62;100836.53;5046865;28;20021;-66
2023/12/03 06:33:25;;;;;;;0.70;0.70;;;;;;;-6.62;80.55;100820.97;5048117;28;20022;-67
2023/12/03 06:35:51;;;;;;;1.00;1.00;;;;;;;-6.58;80.94;100827.06;5047877;28;20033;-66
2023/12/03 06:38:16;;;;;;;1.02;1.02;;;;;;;-6.65;80.87;100815.69;5047977;28;20022;-67
2023/12/03 06:40:42;;;;;;;0.93;0.93;;;;;;;-6.62;80.80;100828.53;5047797;28;20105;-67
2023/12/03 06:43:07;;;;;;;0.88;0.88;;;;;;;-6.60;80.99;100836.22;5047719;28;20025;-67
2023/12/03 06:45:33;;;;;;;2.53;1.55;;;;;;;-6.65;80.74;100824.91;5029873;28;20037;-66
2023/12/03 06:47:59;;;;;;;1.15;1.15;;;;;;;-6.66;80.75;100833.28;5047706;28;20109;-66
2023/12/03 06:50:24;;;;;;;0.60;0.60;;;;;;;-6.67;80.87;100834.03;5047539;28;20044;-67
2023/12/03 06:52:49;;;;;;;0.77;0.77;;;;;;;-6.72;80.86;100836.25;5047647;28;20089;-67
2023/12/03 06:55:15;;;;;;;0.90;0.90;;;;;;;-6.72;80.79;100841.28;5047557;28;20017;-67
2023/12/03 06:57:40;;;;;;;0.70;0.70;;;;;;;-6.79;80.78;100840.00;5047570;28;20095;-66
2023/12/03 07:00:06;;;;;;;0.60;0.60;;;;;;;-6.76;80.85;100842.75;5047395;28;20033;-66
2023/12/03 07:02:32;;;;;;;0.80;0.80;;;;;;;-6.77;80.75;100848.56;5047259;28;20021;-66
2023/12/03 07:04:57;;;;;;;0.60;0.60;;;;;;;-6.78;80.92;100846.81;5047371;28;20045;-66
2023/12/03 07:07:22;;;;;;;1.10;1.10;;;;;;;-6.83;80.93;100838.03;5047234;28;20021;-67
2023/12/03 07:09:48;;;;;;;0.70;0.70;;;;;;;-6.81;80.85;100843.19;5047123;28;20022;-67
2023/12/03 07:12:13;;;;;;;0.60;0.60;;;;;;;-6.78;81.01;100848.44;5028724;28;20085;-66
2023/12/03 07:14:39;;;;;;;0.60;0.60;;;;;;;-6.82;80.99;100844.81;5047228;28;20024;-66
2023/12/03 07:17:04;;;;;;;1.08;1.02;;;;;;;-6.79;81.01;100847.59;5047055;28;20021;-66
2023/12/03 07:19:30;;;;;;;1.25;1.25;;;;;;;-6.83;80.89;100850.66;5047280;28;20505;-66
2023/12/03 07:21:55;;;;;;;1.42;1.20;;;;;;;-6.91;80.95;100826.50;5046958;28;20021;-66
2023/12/03 07:24:21;;;;;;;0.80;0.80;;;;;;;-6.86;80.96;100845.41;5047128;28;20100;-65
2023/12/03 07:26:46;;;;;;;1.15;1.15;;;;;;;-6.85;80.96;100847.13;5046906;28;20080;-66
2023/12/03 07:29:12;;;;;;;0.70;0.70;;;;;;;-6.89;81.04;100842.66;5046879;28;20032;-65
2023/12/03 07:31:37;;;;;;;2.67;1.02;;;;;;;-6.86;80.76;100856.38;5046884;28;20056;-64
2023/12/03 07:34:02;;;;;;;0.70;0.70;;;;;;;-6.88;80.95;100849.44;5046798;28;20033;-67
2023/12/03 07:36:28;;;;;;;1.17;1.17;;;;;;;-6.90;81.01;100849.34;5028750;28;20021;-65
2023/12/03 07:38:53;;;;;;;2.35;2.20;;;;;;;-6.91;80.97;100856.81;5046816;28;20060;-68
2023/12/03 07:41:18;;;;;;;0.60;0.60;;;;;;;-6.94;81.00;100849.03;5046840;28;20022;-68
2023/12/03 07:43:44;;;;;;;16.85;2.58;;;;;;;-6.93;81.00;100853.31;5046771;28;20073;-68
2023/12/03 07:46:16;;;;;;;1.38;1.27;;;;;;;-6.93;81.26;100859.22;5046683;28;20025;-67
2023/12/03 07:48:41;;;;;;;0.80;0.80;;;;;;;-6.92;81.05;100862.66;5046852;28;20032;-68
2023/12/03 07:51:12;;;;;;;0.60;0.60;;;;;;;-7.02;80.93;100854.44;5046336;28;20215;-69
2023/12/03 07:53:41;;;;;;;0.88;0.88;;;;;;;-6.99;81.29;100859.69;5046570;28;20155;-69
2023/12/03 07:56:07;;;;;;;0.80;0.80;;;;;;;-6.90;81.11;100863.63;5046176;28;20028;-68
2023/12/03 07:58:34;;;;;;;1.63;1.50;;;;;;;-6.74;81.41;100875.69;5046610;28;20055;-67
2023/12/03 08:01:00;;;;;;;0.70;0.70;;;;;;;-6.62;81.49;100880.69;5046215;28;20482;-68
2023/12/03 08:03:26;;;;;;;0.70;0.70;;;;;;;-6.59;81.09;100883.44;5046242;28;20032;-69
2023/12/03 08:05:51;;;;;;;0.60;0.60;;;;;;;-6.60;81.10;100882.53;5045980;28;20022;-68
2023/12/03 08:08:17;;;;;;;0.85;0.85;;;;;;;-6.56;80.98;100887.81;5028053;28;20025;-70
2023/12/03 08:10:42;;;;;;;0.60;0.60;;;;;;;-6.60;81.13;100894.31;5045802;28;20022;-69
2023/12/03 08:13:07;;;;;;;0.60;0.60;;;;;;;-6.65;81.07;100888.94;5045664;28;20446;-69
2023/12/03 08:15:32;;;;;;;0.73;0.70;;;;;;;-6.61;81.00;100892.53;5045801;28;20029;-69
2023/12/03 08:17:58;;;;;;;0.77;0.77;;;;;;;-6.61;81.31;100887.50;5046067;28;20025;-68
2023/12/03 08:20:23;;;;;;;5.35;1.70;;;;;;;-6.61;81.32;100887.50;5045625;28;20032;-68
2023/12/03 08:22:48;;;;;;;0.55;0.55;;;;;;;-6.51;81.44;100894.06;5044523;28;20021;-69
2023/12/03 08:25:14;;;;;;;1.00;1.00;;;;;;;-6.45;81.45;100894.47;5045890;28;20041;-69
2023/12/03 08:27:40;;;;;;;0.73;0.73;;;;;;;-6.35;81.40;100911.16;5045891;28;20025;-68
2023/12/03 08:30:06;;;;;;;0.63;0.63;;;;;;;-6.39;81.42;100896.56;5045871;28;20429;-68
2023/12/03 08:32:32;;;;;;;1.33;1.33;;;;;;;-6.30;81.45;100903.88;5045812;28;20028;-69
2023/12/03 08:34:57;;;;;;;0.60;0.60;;;;;;;-6.25;81.44;100908.50;5045801;28;20029;-68
2023/12/03 08:37:22;;;;;;;0.60;0.60;;;;;;;-6.17;81.25;100905.59;5045547;28;20025;-68
2023/12/03 08:39:48;;;;;;;0.60;0.60;;;;;;;-6.12;81.48;100911.84;5045793;28;20099;-64
2023/12/03 08:42:16;;;;;;;2.67;1.17;;;;;;;-6.11;81.29;100913.59;5045615;28;20029;-69
2023/12/03 08:44:41;;;;;;;0.60;0.60;;;;;;;-6.11;81.23;100914.47;5045730;28;20032;-67
2023/12/03 08:47:06;;;;;;;0.75;0.75;;;;;;;-6.10;81.21;100917.88;5045278;28;20104;-68
2023/12/03 08:49:32;;;;;;;0.60;0.60;;;;;;;-6.07;81.21;100925.66;5045343;28;20428;-70
2023/12/03 08:51:57;;;;;;;1.23;1.23;;;;;;;-6.07;81.38;100917.22;5045538;28;20052;-70
2023/12/03 08:54:22;;;;;;;1.33;1.25;;;;;;;-6.06;81.38;100914.78;5045244;28;20155;-72
2023/12/03 08:56:48;;;;;;;1.00;0.90;;;;;;;-6.03;81.23;100925.06;5044885;28;20489;-71
2023/12/03 08:59:13;;;;;;;1.70;1.48;;;;;;;-6.04;81.29;100920.81;5044795;28;20028;-73
2023/12/03 09:01:39;;;;;;;0.63;0.63;;;;;;;-6.01;81.23;100926.06;5045059;28;20056;-73
2023/12/03 09:04:04;;;;;;;0.60;0.60;;;;;;;-5.99;81.25;100923.63;5027505;28;20048;-72
2023/12/03 09:06:30;;;;;;;2.20;1.55;;;;;;;-6.01;81.24;100926.06;5026731;28;20021;-73
2023/12/03 09:08:56;;;;;;;0.60;0.60;;;;;;;-6.00;81.25;100927.81;5044984;28;20022;-73
2023/12/03 09:11:22;;;;;;;1.95;1.25;;;;;;;-6.02;81.33;100924.28;5027351;28;20028;-73
2023/12/03 09:13:47;;;;;;;0.70;0.70;;;;;;;-5.92;81.20;100943.50;5044647;28;20028;-72
2023/12/03 09:16:13;;;;;;;0.95;0.95;;;;;;;-5.91;81.25;100940.19;5044385;28;20026;-72
2023/12/03 09:18:38;;;;;;;0.75;0.75;;;;;;;-5.89;81.16;100943.69;5026996;28;20051;-72
2023/12/03 09:21:06;;;;;;;0.77;0.77;;;;;;;-5.86;81.37;100937.94;5044793;28;20022;-73
2023/12/03 09:23:33;;;;;;;0.80;0.80;;;;;;;-5.81;81.36;100941.69;5044732;28;20037;-72
2023/12/03 09:25:59;;;;;;;0.60;0.60;;;;;;;-5.76;80.96;100940.34;5044654;28;20375;-73
2023/12/03 09:28:24;;;;;;;0.60;0.60;;;;;;;-5.74;81.06;100948.91;5044541;28;20488;-72
2023/12/03 09:30:49;;;;;;;0.60;0.60;;;;;;;-5.68;80.97;100963.63;5044645;28;20036;-69
2023/12/03 09:33:15;;;;;;;0.50;0.50;;;;;;;-5.68;81.00;100967.78;5044585;28;20053;-69
2023/12/03 09:35:40;;;;;;;0.88;0.88;;;;;;;-5.63;81.13;100964.81;5043900;28;20112;-72
2023/12/03 09:38:05;;;;;;;0.55;0.55;;;;;;;-5.58;80.94;100965.09;5044515;28;20033;-72
2023/12/03 09:40:31;;;;;;;0.57;0.57;;;;;;;-5.54;80.56;100967.06;5026639;28;20026;-73
2023/12/03 09:42:58;;;;;;;0.70;0.70;;;;;;;-5.60;80.12;100959.06;5044790;28;20108;-72
2023/12/03 09:45:26;;;;;;;0.60;0.60;;;;;;;-5.67;80.29;100955.22;5026736;28;20022;-72
2023/12/03 09:47:59;;;;;;;0.98;0.98;;;;;;;-5.64;80.22;100957.13;5044495;28;20033;-72
2023/12/03 09:50:24;;;;;;;0.70;0.70;;;;;;;-5.69;80.51;100950.88;5044179;28;20079;-71
2023/12/03 09:52:53;;;;;;;0.70;0.70;;;;;;;-5.58;80.59;100964.22;5026902;28;20025;-73
2023/12/03 09:55:26;;;;;;;0.82;0.82;;;;;;;-5.62;80.48;100958.06;5026804;28;20049;-71
2023/12/03 09:57:55;;;;;;;0.90;0.90;;;;;;;-5.65;80.39;100953.69;5043110;28;20045;-70
2023/12/03 10:00:22;;;;;;;0.98;0.98;;;;;;;-5.61;80.53;100954.78;5044176;28;20025;-70
2023/12/03 10:02:52;;;;;;;0.85;0.80;;;;;;;-5.59;80.08;100958.28;5044455;28;20385;-70
2023/12/03 10:05:17;;;;;;;0.90;0.90;;;;;;;-5.60;80.05;100961.59;5044403;28;20021;-69
2023/12/03 10:07:51;;;;;;;0.52;0.52;;;;;;;-5.61;80.21;100957.31;5044904;28;20033;-70
2023/12/03 10:10:18;;;;;;;1.33;1.33;;;;;;;-5.57;79.99;100946.59;5044701;28;20029;-70
2023/12/03 10:12:43;;;;;;;6.95;1.50;;;;;;;-5.60;80.12;100946.41;5044353;28;20033;-70
2023/12/03 10:15:12;;;;;;;0.70;0.70;;;;;;;-5.56;80.04;100944.97;5044538;28;20079;-70
2023/12/03 10:17:38;;;;;;;0.55;0.55;;;;;;;-5.55;79.61;100940.00;5044224;28;20048;-69
2023/12/03 10:20:21;;;;;;;0.60;0.60;;;;;;;-5.48;79.81;100949.75;5026546;28;20022;-70
2023/12/03 10:22:50;;;;;;;1.67;1.58;;;;;;;-5.42;79.95;100940.81;5044572;28;20040;-69
2023/12/03 10:25:29;;;;;;;2.10;1.42;;;;;;;-5.26;80.25;100937.63;5044402;28;20025;-69
2023/12/03 10:27:56;;;;;;;1.30;1.30;;;;;;;-4.99;80.03;100948.66;5044329;28;20085;-70
2023/12/03 10:30:22;;;;;;;5.57;1.40;;;;;;;-4.85;79.79;100943.56;5044508;28;20029;-71
2023/12/03 10:32:48;;;;;;;0.52;0.52;;;;;;;-4.74;79.52;100939.16;5044704;28;20030;-71
2023/12/03 10:35:13;;;;;;;0.57;0.57;;;;;;;-4.67;79.32;100942.97;5026667;28;20025;-70
2023/12/03 10:37:38;;;;;;;1.08;1.08;;;;;;;-4.60;79.74;100928.22;5026434;28;20017;-70
2023/12/03 10:40:04;;;;;;;1.30;1.25;;;;;;;-4.37;79.77;100936.38;5044337;28;20028;-70
2023/12/03 10:42:35;;;;;;;2.22;1.55;;;;;;;-4.23;79.75;100927.06;5044202;28;20025;-70
2023/12/03 10:45:15;;;;;;;0.80;0.80;;;;;;;-3.97;79.98;100934.47;5044391;28;20394;-70
2023/12/03 10:47:42;;;;;;;0.50;0.50;;;;;;;-3.69;80.18;100923.41;5045683;28;20279;-70
2023/12/03 10:50:12;;;;;;;0.93;0.93;;;;;;;-3.43;79.89;100920.63;5030005;28;20022;-70
2023/12/03 10:52:39;;;;;;;0.50;0.50;;;;;;;-3.24;79.81;100925.06;5047199;28;20021;-70
2023/12/03 10:55:09;;;;;;;1.95;0.88;;;;;;;-3.08;79.51;100924.28;5047852;28;20025;-70
2023/12/03 10:57:43;;;;;;;0.55;0.55;;;;;;;-2.69;78.70;100925.50;5047403;28;20065;-69
2023/12/03 11:00:09;;;;;;;1.05;1.05;;;;;;;-2.03;76.62;100937.44;5047629;28;20029;-69
2023/12/03 11:02:59;;;;;;;0.60;0.60;;;;;;;-1.61;74.21;100934.44;5047655;28;20030;-70
2023/12/03 11:05:32;;;;;;;0.93;0.93;;;;;;;-1.32;71.48;100924.81;5047474;28;20022;-68
2023/12/03 11:08:02;;;;;;;3.70;1.60;;;;;;;-1.03;70.16;100925.34;5047571;28;20051;-70
2023/12/03 11:10:28;;;;;;;0.50;0.50;;;;;;;-0.77;69.15;100927.38;5047552;28;20022;-69
2023/12/03 11:12:53;;;;;;;0.60;0.60;;;;;;;-0.52;67.84;100925.94;5047555;28;20580;-69
2023/12/03 11:15:19;;;;;;;1.25;1.25;;;;;;;-0.06;67.68;100931.31;5047369;28;20021;-70
2023/12/03 11:17:58;;;;;;;0.90;0.90;;;;;;;0.48;66.23;100920.84;5047470;28;20021;-70
2023/12/03 11:20:30;;;;;;;5.15;2.05;;;;;;;0.68;65.56;100928.47;5047148;28;20085;-70